createdAt,value
2018-08-04T00:01:22.364Z,9.97
2018-08-04T00:03:49.350Z,10.10
2018-08-04T00:06:16.750Z,10.00
2018-08-04T00:08:43.819Z,10.23
2018-08-04T00:11:11.655Z,10.53
2018-08-04T00:13:38.641Z,10.13
2018-08-04T00:16:05.688Z,10.00
2018-08-04T00:18:32.689Z,10.27
2018-08-04T00:20:59.677Z,10.10
2018-08-04T00:23:26.714Z,9.90
2018-08-04T00:25:54.663Z,9.70
2018-08-04T00:28:21.768Z,9.70
2018-08-04T00:30:49.345Z,10.07
2018-08-04T00:33:17.180Z,10.70
2018-08-04T00:35:44.525Z,10.33
2018-08-04T00:38:11.549Z,9.70
2018-08-04T00:40:38.542Z,9.77
2018-08-04T00:43:05.540Z,9.57
2018-08-04T00:45:32.613Z,9.33
2018-08-04T00:47:59.639Z,9.47
2018-08-04T00:50:26.952Z,10.43
2018-08-04T00:52:54.069Z,9.90
2018-08-04T00:55:21.070Z,10.00
2018-08-04T00:57:48.090Z,9.47
2018-08-04T01:00:15.143Z,10.07
2018-08-04T01:02:42.146Z,9.50
2018-08-04T01:05:09.131Z,10.40
2018-08-04T01:07:36.207Z,10.80
2018-08-04T01:12:41.718Z,11.10
2018-08-04T01:15:09.213Z,9.97
2018-08-04T01:17:36.199Z,10.63
2018-08-04T01:20:03.283Z,10.73
2018-08-04T01:22:31.196Z,10.73
2018-08-04T01:24:58.290Z,10.40
2018-08-04T01:27:25.319Z,10.80
2018-08-04T01:29:52.530Z,10.60
2018-08-04T01:32:19.530Z,10.97
2018-08-04T01:34:46.601Z,10.60
2018-08-04T01:37:13.601Z,10.77
2018-08-04T01:39:40.589Z,11.53
2018-08-04T01:42:07.629Z,10.93
2018-08-04T01:44:34.619Z,12.03
2018-08-04T01:47:01.621Z,11.23
2018-08-04T01:49:29.353Z,10.73
2018-08-04T01:51:56.337Z,11.43
2018-08-04T01:54:23.329Z,10.33
2018-08-04T01:56:51.185Z,11.03
2018-08-04T01:59:18.172Z,9.87
2018-08-04T02:01:45.280Z,10.77
2018-08-04T02:04:12.345Z,10.77
2018-08-04T02:06:39.336Z,11.00
2018-08-04T02:09:06.331Z,9.87
2018-08-04T02:11:33.396Z,10.80
2018-08-04T02:14:00.380Z,10.53
2018-08-04T02:16:27.382Z,10.83
2018-08-04T02:18:54.440Z,10.50
2018-08-04T02:21:21.525Z,9.87
2018-08-04T02:26:27.044Z,10.97
2018-08-04T02:28:54.044Z,10.57
2018-08-04T02:31:21.842Z,10.13
2018-08-04T02:33:48.917Z,10.23
2018-08-04T02:36:15.932Z,10.30
2018-08-04T02:38:42.941Z,11.20
2018-08-04T02:41:09.988Z,10.80
2018-08-04T02:43:36.990Z,10.63
2018-08-04T02:46:03.979Z,10.80
2018-08-04T02:48:31.054Z,11.23
2018-08-04T02:50:58.893Z,10.70
2018-08-04T02:53:25.884Z,11.40
2018-08-04T02:55:53.011Z,11.43
2018-08-04T02:58:20.081Z,11.23
2018-08-04T03:00:47.945Z,11.13
2018-08-04T03:03:15.106Z,11.10
2018-08-04T03:05:42.132Z,12.03
2018-08-04T03:08:09.130Z,11.63
2018-08-04T03:10:36.751Z,11.90
2018-08-04T03:13:03.725Z,11.20
2018-08-04T03:15:30.726Z,11.57
2018-08-04T03:17:58.715Z,11.07
2018-08-04T03:20:25.715Z,11.93
2018-08-04T03:22:52.711Z,11.73
2018-08-04T03:25:19.751Z,12.10
2018-08-04T03:27:46.767Z,11.83
2018-08-04T03:30:13.777Z,11.87
2018-08-04T03:32:41.804Z,12.17
2018-08-04T03:35:08.806Z,12.63
2018-08-04T03:37:35.807Z,12.23
2018-08-04T03:42:41.321Z,12.97
2018-08-04T03:45:08.401Z,11.20
2018-08-04T03:47:35.428Z,11.80
2018-08-04T03:50:03.308Z,12.67
2018-08-04T03:52:30.352Z,12.53
2018-08-04T03:54:57.351Z,11.77
2018-08-04T03:57:24.357Z,11.80
2018-08-04T03:59:51.404Z,13.10
2018-08-04T04:02:18.398Z,12.97
2018-08-04T04:04:45.405Z,12.53
2018-08-04T04:07:12.475Z,14.13
2018-08-04T04:09:39.462Z,12.20
2018-08-04T04:12:06.599Z,12.83
2018-08-04T04:14:33.757Z,11.63
2018-08-04T04:17:00.858Z,11.90
2018-08-04T04:19:27.860Z,12.77
2018-08-04T04:21:54.904Z,12.90
2018-08-04T04:24:21.890Z,12.67
2018-08-04T04:26:49.230Z,11.77
2018-08-04T04:29:16.221Z,13.70
2018-08-04T04:31:43.221Z,13.27
2018-08-04T04:34:10.224Z,13.17
2018-08-04T04:36:37.262Z,13.47
2018-08-04T04:41:44.822Z,14.20
2018-08-04T04:44:11.814Z,12.63
2018-08-04T04:46:38.881Z,13.17
2018-08-04T04:49:05.925Z,13.20
2018-08-04T04:51:32.926Z,12.43
2018-08-04T04:53:59.929Z,13.07
2018-08-04T04:56:26.994Z,12.67
2018-08-04T04:58:53.996Z,13.80
2018-08-04T05:01:21.014Z,13.63
2018-08-04T05:03:48.063Z,13.43
2018-08-04T05:06:15.076Z,13.97
2018-08-04T05:08:42.107Z,13.83
2018-08-04T05:11:15.057Z,13.40
2018-08-04T05:13:42.303Z,14.70
2018-08-04T05:16:09.295Z,13.80
2018-08-04T05:18:36.370Z,13.53
2018-08-04T05:21:03.361Z,15.17
2018-08-04T05:23:30.374Z,15.13
2018-08-04T05:25:57.862Z,15.43
2018-08-04T05:28:24.876Z,14.03
2018-08-04T05:30:51.883Z,14.80
2018-08-04T05:33:18.955Z,13.57
2018-08-04T05:35:45.942Z,14.57
2018-08-04T05:38:12.993Z,13.73
2018-08-04T05:40:40.025Z,14.13
2018-08-04T05:45:45.550Z,15.27
2018-08-04T05:48:12.545Z,14.30
2018-08-04T05:50:39.543Z,14.60
2018-08-04T05:53:06.596Z,13.43
2018-08-04T05:55:33.649Z,13.90
2018-08-04T05:58:00.717Z,15.10
2018-08-04T06:00:27.818Z,15.07
2018-08-04T06:02:54.809Z,15.30
2018-08-04T06:05:21.799Z,15.13
2018-08-04T06:07:48.834Z,14.47
2018-08-04T06:10:15.838Z,15.63
2018-08-04T06:12:42.912Z,16.17
2018-08-04T06:15:10.847Z,14.63
2018-08-04T06:17:37.836Z,15.20
2018-08-04T06:20:05.748Z,16.63
2018-08-04T06:22:32.749Z,16.77
2018-08-04T06:24:59.739Z,15.33
2018-08-04T06:27:26.734Z,15.60
2018-08-04T06:29:54.734Z,14.43
2018-08-04T06:32:21.730Z,15.50
2018-08-04T06:34:48.725Z,15.27
2018-08-04T06:37:15.760Z,15.20
2018-08-04T06:39:42.738Z,15.27
2018-08-04T06:42:09.736Z,14.70
2018-08-04T06:44:36.806Z,15.40
2018-08-04T06:47:03.802Z,14.77
2018-08-04T06:49:30.792Z,15.37
2018-08-04T06:51:57.964Z,16.33
2018-08-04T06:54:25.045Z,14.13
2018-08-04T06:56:52.044Z,14.27
2018-08-04T07:01:57.563Z,15.77
2018-08-04T07:04:24.750Z,14.83
2018-08-04T07:06:51.738Z,15.30
2018-08-04T07:09:18.729Z,14.80
2018-08-04T07:11:45.758Z,14.73
2018-08-04T07:14:12.746Z,15.20
2018-08-04T07:16:39.736Z,13.80
2018-08-04T07:19:06.765Z,13.80
2018-08-04T07:21:33.773Z,14.77
2018-08-04T07:24:00.753Z,15.03
2018-08-04T07:26:27.842Z,13.57
2018-08-04T07:28:54.864Z,14.07
2018-08-04T07:31:21.823Z,14.03
2018-08-04T07:33:49.767Z,14.07
2018-08-04T07:36:16.745Z,13.93
2018-08-04T07:38:43.732Z,14.57
2018-08-04T07:41:11.494Z,14.27
2018-08-04T07:43:38.491Z,13.70
2018-08-04T07:46:05.482Z,13.60
2018-08-04T07:48:32.517Z,13.93
2018-08-04T07:50:59.590Z,14.20
2018-08-04T07:53:26.579Z,13.47
2018-08-04T07:55:53.602Z,13.60
2018-08-04T07:58:20.600Z,14.00
2018-08-04T08:00:47.603Z,13.13
2018-08-04T08:03:14.631Z,14.07
2018-08-04T08:05:42.586Z,13.33
2018-08-04T08:08:09.575Z,13.47
2018-08-04T08:10:36.668Z,13.07
2018-08-04T08:13:03.597Z,12.80
2018-08-04T08:15:30.595Z,12.83
2018-08-04T08:17:57.630Z,12.80
2018-08-04T08:23:04.091Z,13.77
2018-08-04T08:25:31.021Z,13.13
2018-08-04T08:27:58.005Z,11.98
2018-08-04T08:30:25.040Z,12.43
2018-08-04T08:32:52.116Z,12.32
2018-08-04T08:35:19.044Z,13.45
2018-08-04T08:37:46.253Z,12.82
2018-08-04T08:40:13.275Z,11.82
2018-08-04T08:42:40.261Z,13.50
2018-08-04T08:45:07.321Z,12.07
2018-08-04T08:47:34.311Z,12.98
2018-08-04T08:50:02.253Z,12.55
2018-08-04T08:52:29.323Z,12.80
2018-08-04T08:54:56.333Z,11.90
2018-08-04T08:57:23.328Z,12.18
2018-08-04T08:59:50.379Z,13.30
2018-08-04T09:02:17.414Z,12.40
2018-08-04T09:04:44.492Z,11.68
2018-08-04T09:07:12.386Z,11.88
2018-08-04T09:09:39.384Z,12.85
2018-08-04T09:12:07.099Z,12.73
2018-08-04T09:14:34.146Z,12.63
2018-08-04T09:17:01.156Z,12.23
2018-08-04T09:19:28.157Z,12.18
2018-08-04T09:21:55.211Z,11.80
2018-08-04T09:24:22.206Z,11.48
2018-08-04T09:26:49.206Z,12.02
2018-08-04T09:29:16.384Z,11.80
2018-08-04T09:31:43.376Z,12.70
2018-08-04T09:34:11.321Z,12.32
2018-08-04T09:36:38.365Z,13.23
2018-08-04T09:41:43.896Z,13.07
2018-08-04T09:44:10.889Z,11.70
2018-08-04T09:46:37.901Z,12.68
2018-08-04T09:49:04.940Z,12.60
2018-08-04T09:51:31.950Z,12.00
2018-08-04T09:53:58.953Z,12.43
2018-08-04T09:56:26.840Z,11.60
2018-08-04T09:58:53.848Z,13.13
2018-08-04T10:01:20.846Z,12.75
2018-08-04T10:03:47.886Z,12.90
2018-08-04T10:06:14.884Z,11.88
2018-08-04T10:08:41.920Z,12.32
2018-08-04T10:11:08.995Z,11.85
2018-08-04T10:13:36.000Z,12.18
2018-08-04T10:16:02.990Z,11.88
2018-08-04T10:18:30.031Z,10.60
2018-08-04T10:20:57.025Z,12.05
2018-08-04T10:23:24.954Z,9.60
2018-08-04T10:25:52.024Z,9.88
2018-08-04T10:28:19.742Z,10.52
2018-08-04T10:30:46.739Z,11.57
2018-08-04T10:33:13.863Z,9.80
2018-08-04T10:35:40.906Z,7.20
2018-08-04T10:38:07.844Z,7.45
2018-08-04T10:40:34.920Z,8.15
2018-08-04T10:43:01.922Z,7.57
2018-08-04T10:45:28.908Z,9.30
2018-08-04T10:47:55.941Z,9.13
2018-08-04T10:50:22.936Z,8.80
2018-08-04T10:52:49.935Z,7.60
2018-08-04T10:55:17.008Z,7.45
2018-08-04T11:00:25.365Z,7.43
2018-08-04T11:02:52.352Z,6.43
2018-08-04T11:05:19.340Z,7.78
2018-08-04T11:07:47.256Z,7.00
2018-08-04T11:10:15.190Z,7.40
2018-08-04T11:12:42.184Z,6.90
2018-08-04T11:15:09.245Z,7.87
2018-08-04T11:17:36.318Z,7.40
2018-08-04T11:20:04.136Z,7.05
2018-08-04T11:22:31.278Z,7.62
2018-08-04T11:24:59.213Z,7.40
2018-08-04T11:27:26.196Z,7.30
2018-08-04T11:29:53.342Z,8.45
2018-08-04T11:32:20.481Z,8.43
2018-08-04T11:34:47.406Z,7.90
2018-08-04T11:37:14.433Z,7.70
2018-08-04T11:39:41.424Z,8.07
2018-08-04T11:42:08.400Z,7.70
2018-08-04T11:44:35.475Z,7.28
2018-08-04T11:47:03.283Z,8.15
2018-08-04T11:49:31.109Z,7.72
2018-08-04T11:51:58.136Z,7.70
2018-08-04T11:54:25.127Z,7.00
2018-08-04T11:56:52.243Z,7.45
2018-08-04T11:59:19.301Z,7.80
2018-08-04T12:01:47.264Z,7.25
2018-08-04T12:04:14.256Z,7.68
2018-08-04T12:06:42.273Z,7.35
2018-08-04T12:09:10.212Z,8.23
2018-08-04T12:11:37.203Z,8.48
2018-08-04T12:14:04.279Z,8.50
2018-08-04T12:16:32.217Z,7.90
2018-08-04T12:19:00.135Z,8.10
2018-08-04T12:21:27.197Z,8.40
2018-08-04T12:26:34.740Z,8.37
2018-08-04T12:29:02.539Z,8.38
2018-08-04T12:31:29.576Z,8.05
2018-08-04T12:33:57.526Z,8.32
2018-08-04T12:36:24.514Z,8.10
2018-08-04T12:38:52.476Z,8.23
2018-08-04T12:41:20.315Z,8.15
2018-08-04T12:43:47.315Z,6.65
2018-08-04T12:46:14.321Z,7.40
2018-08-04T12:48:41.394Z,6.15
2018-08-04T12:51:08.388Z,7.10
2018-08-04T12:53:35.390Z,6.82
2018-08-04T12:56:02.437Z,7.78
2018-08-04T12:58:29.494Z,7.53
2018-08-04T13:00:56.459Z,7.75
2018-08-04T13:03:23.529Z,8.27
2018-08-04T13:05:50.513Z,8.05
2018-08-04T13:08:17.494Z,7.50
2018-08-04T13:10:44.547Z,7.87
2018-08-04T13:13:11.633Z,7.53
2018-08-04T13:15:38.620Z,7.60
2018-08-04T13:18:05.681Z,7.18
2018-08-04T13:20:33.607Z,7.70
2018-08-04T13:23:00.596Z,7.57
2018-08-04T13:25:27.717Z,7.45
2018-08-04T13:27:54.710Z,7.37
2018-08-04T13:30:21.720Z,8.00
2018-08-04T13:32:48.797Z,7.07
2018-08-04T13:35:15.784Z,7.25
2018-08-04T13:37:42.831Z,7.72
2018-08-04T13:40:09.863Z,7.45
2018-08-04T13:45:18.344Z,7.70
2018-08-04T13:47:45.324Z,7.47
2018-08-04T13:50:13.288Z,7.28
2018-08-04T13:52:41.241Z,7.07
2018-08-04T13:55:08.254Z,6.72
2018-08-04T13:57:35.261Z,6.70
2018-08-04T14:00:02.343Z,6.00
2018-08-04T14:02:29.324Z,5.93
2018-08-04T14:04:56.309Z,5.37
2018-08-04T14:07:24.079Z,6.03
2018-08-04T14:09:51.079Z,5.50
2018-08-04T14:12:18.080Z,6.10
2018-08-04T14:14:45.149Z,6.10
2018-08-04T14:17:12.247Z,5.85
2018-08-04T14:19:39.240Z,5.53
2018-08-04T14:22:06.273Z,6.32
2018-08-04T14:24:34.225Z,5.55
2018-08-04T14:27:01.224Z,5.72
2018-08-04T14:29:28.288Z,5.97
2018-08-04T14:31:55.276Z,5.93
2018-08-04T14:34:22.277Z,6.05
2018-08-04T14:36:49.319Z,5.65
2018-08-04T14:39:17.044Z,5.60
2018-08-04T14:41:44.037Z,6.00
2018-08-04T14:44:11.099Z,5.70
2018-08-04T14:46:38.090Z,5.53
2018-08-04T14:49:05.089Z,6.87
2018-08-04T14:51:32.131Z,6.53
2018-08-04T14:53:59.119Z,6.28
2018-08-04T14:56:26.111Z,7.37
2018-08-04T14:58:53.180Z,7.37
2018-08-04T15:03:58.696Z,6.80
2018-08-04T15:06:26.545Z,7.10
2018-08-04T15:08:53.568Z,7.03
2018-08-04T15:11:20.638Z,7.70
2018-08-04T15:13:48.617Z,7.37
2018-08-04T15:16:15.624Z,7.35
2018-08-04T15:18:42.694Z,7.65
2018-08-04T15:21:09.713Z,7.90
2018-08-04T15:23:36.807Z,8.68
2018-08-04T15:26:04.724Z,8.20
2018-08-04T15:28:31.833Z,8.02
2018-08-04T15:30:59.531Z,8.07
2018-08-04T15:33:27.217Z,8.55
2018-08-04T15:38:33.131Z,8.90
2018-08-04T15:41:00.162Z,8.55
2018-08-04T15:43:27.173Z,8.27
2018-08-04T15:45:54.218Z,7.82
2018-08-04T15:48:21.219Z,7.57
2018-08-04T15:50:48.234Z,8.60
2018-08-04T15:53:15.813Z,8.05
2018-08-04T15:55:42.891Z,7.93
2018-08-04T15:58:09.892Z,8.05
2018-08-04T16:00:36.935Z,7.18
2018-08-04T16:03:03.919Z,7.28
2018-08-04T16:05:30.925Z,8.05
2018-08-04T16:07:57.997Z,7.25
2018-08-04T16:10:25.948Z,7.15
2018-08-04T16:12:52.952Z,8.07
2018-08-04T16:15:20.859Z,7.53
2018-08-04T16:17:47.856Z,8.10
2018-08-04T16:20:14.840Z,7.80
2018-08-04T16:22:41.929Z,7.60
2018-08-04T16:25:08.884Z,7.65
2018-08-04T16:27:35.963Z,7.53
2018-08-04T16:30:03.032Z,7.20
2018-08-04T16:32:30.089Z,7.07
2018-08-04T16:34:57.882Z,7.50
2018-08-04T16:37:25.096Z,7.22
2018-08-04T16:39:51.952Z,8.23
2018-08-04T16:42:19.817Z,7.72
2018-08-04T16:44:46.851Z,7.62
2018-08-04T16:47:14.718Z,7.37
2018-08-04T16:49:41.727Z,6.40
2018-08-04T16:52:08.870Z,6.70
2018-08-04T16:54:36.567Z,8.50
2018-08-04T16:57:04.356Z,7.03
2018-08-04T16:59:31.701Z,6.40
2018-08-04T17:04:37.681Z,6.97
2018-08-04T17:07:05.662Z,6.62
2018-08-04T17:09:32.677Z,6.57
2018-08-04T17:11:59.716Z,6.12
2018-08-04T17:14:26.736Z,7.28
2018-08-04T17:16:54.638Z,6.20
2018-08-04T17:19:21.696Z,5.97
2018-08-04T17:21:48.692Z,5.65
2018-08-04T17:24:15.691Z,6.47
2018-08-04T17:26:42.722Z,6.30
2018-08-04T17:29:09.744Z,6.40
2018-08-04T17:31:36.735Z,6.22
2018-08-04T17:34:03.802Z,6.05
2018-08-04T17:36:30.847Z,6.53
2018-08-04T17:38:58.805Z,6.03
2018-08-04T17:41:25.854Z,6.30
2018-08-04T17:43:52.843Z,6.15
2018-08-04T17:46:19.826Z,6.45
2018-08-04T17:48:46.991Z,6.55
2018-08-04T17:51:13.990Z,6.50
2018-08-04T17:53:40.992Z,6.25
2018-08-04T17:56:08.030Z,6.05
2018-08-04T17:58:35.018Z,6.03
2018-08-04T18:01:02.006Z,6.40
2018-08-04T18:03:29.084Z,6.40
2018-08-04T18:05:56.070Z,6.68
2018-08-04T18:08:23.058Z,6.05
2018-08-04T18:10:50.101Z,6.28
2018-08-04T18:13:17.096Z,6.57
2018-08-04T18:15:44.094Z,6.68
2018-08-04T18:18:11.157Z,6.80
2018-08-04T18:20:38.155Z,6.68
2018-08-04T18:25:44.463Z,7.00
2018-08-04T18:28:11.467Z,6.80
2018-08-04T18:30:38.470Z,6.57
2018-08-04T18:33:05.548Z,10.30
2018-08-04T18:38:00.546Z,9.07
2018-08-04T18:40:27.539Z,8.98
2018-08-04T18:42:55.438Z,6.68
2018-08-04T18:45:22.448Z,7.22
2018-08-04T18:47:49.619Z,6.57
2018-08-04T18:50:16.620Z,6.70
2018-08-04T18:52:43.620Z,6.62
2018-08-04T18:55:10.660Z,6.70
2018-08-04T18:57:37.655Z,7.07
2018-08-04T19:00:04.644Z,7.10
2018-08-04T19:02:31.708Z,7.37
2018-08-04T19:04:58.694Z,6.73
2018-08-04T19:10:04.614Z,7.10
2018-08-04T19:12:31.644Z,6.97
2018-08-04T19:14:58.614Z,7.03
2018-08-04T19:17:25.689Z,6.80
2018-08-04T19:19:52.701Z,12.47
2018-08-04T19:22:19.810Z,8.70
2018-08-04T19:24:46.766Z,8.37
2018-08-04T19:27:13.936Z,7.90
2018-08-04T19:29:40.931Z,8.00
2018-08-04T19:32:08.047Z,7.20
2018-08-04T19:34:35.067Z,7.33
2018-08-04T19:37:02.070Z,7.30
2018-08-04T19:39:29.220Z,8.10
2018-08-04T19:41:56.309Z,8.10
2018-08-04T19:44:23.873Z,8.13
2018-08-04T19:46:50.958Z,7.20
2018-08-04T19:49:17.989Z,7.30
2018-08-04T19:51:45.023Z,6.97
2018-08-04T19:54:12.147Z,7.60
2018-08-04T19:59:25.686Z,8.57
2018-08-04T20:01:52.717Z,8.20
2018-08-04T20:04:19.710Z,7.70
2018-08-04T20:06:47.108Z,7.87
2018-08-04T20:09:14.168Z,7.03
2018-08-04T20:11:41.168Z,7.87
2018-08-04T20:14:09.168Z,7.27
2018-08-04T20:16:36.214Z,9.10
2018-08-04T20:19:03.214Z,8.50
2018-08-04T20:21:30.220Z,8.27
2018-08-04T20:23:57.296Z,8.30
2018-08-04T20:26:25.241Z,7.87
2018-08-04T20:28:52.241Z,7.70
2018-08-04T20:31:19.331Z,7.33
2018-08-04T20:33:46.351Z,8.63
2018-08-04T20:36:13.352Z,7.43
2018-08-04T20:38:40.413Z,8.07
2018-08-04T20:41:07.505Z,7.53
2018-08-04T20:43:34.502Z,8.63
2018-08-04T20:46:01.567Z,8.40
2018-08-04T20:48:28.622Z,9.33
2018-08-04T20:50:55.608Z,8.53
2018-08-04T20:53:22.611Z,8.40
2018-08-04T20:55:49.682Z,7.73
2018-08-04T20:58:17.574Z,8.70
2018-08-04T21:03:23.388Z,8.87
2018-08-04T21:05:50.390Z,8.17
2018-08-04T21:08:17.389Z,7.70
2018-08-04T21:10:44.463Z,8.27
2018-08-04T21:13:11.455Z,9.00
2018-08-04T21:15:38.476Z,8.60
2018-08-04T21:18:05.567Z,8.20
2018-08-04T21:20:33.108Z,8.07
2018-08-04T21:23:00.122Z,8.13
2018-08-04T21:25:27.155Z,8.70
2018-08-04T21:27:54.175Z,8.93
2018-08-04T21:30:21.193Z,8.90
2018-08-04T21:32:48.279Z,8.33
2018-08-04T21:35:15.378Z,8.37
2018-08-04T21:37:42.401Z,8.90
2018-08-04T21:40:09.445Z,8.37
2018-08-04T21:42:36.445Z,8.33
2018-08-04T21:45:03.448Z,8.33
2018-08-04T21:47:30.542Z,8.33
2018-08-04T21:49:57.559Z,7.57
2018-08-04T21:52:24.721Z,8.60
2018-08-04T21:54:51.850Z,8.00
2018-08-04T21:57:19.725Z,8.20
2018-08-04T21:59:46.740Z,8.93
2018-08-04T22:02:13.831Z,8.90
2018-08-04T22:04:40.863Z,7.93
2018-08-04T22:09:46.452Z,9.80
2018-08-04T22:12:13.465Z,9.07
2018-08-04T22:14:40.488Z,9.63
2018-08-04T22:17:08.266Z,9.30
2018-08-04T22:19:36.278Z,9.07
2018-08-04T22:22:04.131Z,9.07
2018-08-04T22:24:31.183Z,8.70
2018-08-04T22:26:59.019Z,9.37
2018-08-04T22:29:27.534Z,9.27
2018-08-04T22:31:54.608Z,9.73
2018-08-04T22:34:22.497Z,8.93
2018-08-04T22:36:49.498Z,8.67
2018-08-04T22:39:17.534Z,9.13
2018-08-04T22:41:44.614Z,8.53
2018-08-04T22:44:11.640Z,8.50
2018-08-04T22:46:38.738Z,8.63
2018-08-04T22:49:06.566Z,7.73
2018-08-04T22:51:33.605Z,7.57
2018-08-04T22:54:00.652Z,8.40
2018-08-04T22:56:28.494Z,8.17
2018-08-04T22:58:55.508Z,7.90
2018-08-04T23:01:23.087Z,8.50
2018-08-04T23:03:49.991Z,8.80
2018-08-04T23:06:17.151Z,8.93
2018-08-04T23:08:44.224Z,8.77
2018-08-04T23:11:11.247Z,8.40
2018-08-04T23:13:38.277Z,8.37
2018-08-04T23:16:05.359Z,8.70
2018-08-04T23:18:32.482Z,8.53
2018-08-04T23:20:59.530Z,8.50
2018-08-04T23:23:26.597Z,8.30
2018-08-04T23:25:53.619Z,8.90
2018-08-04T23:30:59.226Z,9.20
2018-08-04T23:33:26.327Z,9.20
2018-08-04T23:35:53.356Z,8.97
2018-08-04T23:38:20.438Z,8.97
2018-08-04T23:40:47.430Z,9.47
2018-08-04T23:43:14.511Z,9.13
2018-08-04T23:45:41.572Z,10.13
2018-08-04T23:48:08.607Z,10.10
2018-08-04T23:50:35.616Z,8.93
2018-08-04T23:53:02.708Z,9.43
2018-08-04T23:55:30.533Z,9.00
2018-08-04T23:57:57.543Z,9.77
